Majed Ismail

Recruteur - Al Wahda
3 Févr 2028
Jeudi
Processus

Personnalité

Adaptabilité (7) Ambition (16) Controverse (1) Loyauté (9) Pression (6) Professionnalisme (10) Sportivité (10) Tempérament (8)

Profil

Style d'entraînement Démocratique
Diplôme Continental A
Détermination 4
Gestion des joueurs 11
Motivation 11
Discipline 13
Satisfaction professionnelle
100%
Fatigue
0%
Rôle Recruteur
Salaire 68.2K p/s
Contrat 14.03.2029

Performance

Comportement Bon
Efficacité de l'entraînement
38%
Développement des joueurs
60%
Prévention des blessures
45%
Mise en place tactique
55%

Événements récents

A participé à une réunion de recrutement 7j
A recommandé une cible de transfert 7j
A évalué un joueur 7j
A évalué un joueur 7j
A évalué un joueur 7j
A évalué un joueur 7j
A évalué un joueur 7j
A évalué un joueur 7j

Suivi en cours

133
Joueur Club Statut Capacité Confiance Observé Dernière observation Dernier vote
Miguel Figueiredo Benfica Actif 123 / 118 40% 3 31.01.2028 -
Rhys Chadwick Peterborough United Actif 95 / 114 40% 4 31.01.2028 -
Filip Taraba Istra 1961 Actif 103 / 120 40% 1 31.01.2028 -
Revaz Qazaishvili Tskhinvali Actif 85 / 96 40% 2 30.01.2028 -
Daniel Vernattus Metalist Actif 105 / 102 40% 1 30.01.2028 -
Leo Shahar Newcastle United Actif 119 / 115 40% 1 30.01.2028 -
Amir Mohammad Razzaghinia Esteghlal Actif 121 / 117 40% 2 29.01.2028 -
Denys Smetana Inhulets Actif 102 / 100 40% 1 29.01.2028 -
Afriyie Sulemana Hasaacas Actif 106 / 104 40% 5 28.01.2028 -
Amine Boukamir Charleroi Actif 101 / 117 40% 1 28.01.2028 -
Salem Nader Al Ahli Actif 99 / 95 40% 2 27.01.2028 -
Konta Ludogorets Actif 90 / 99 40% 1 27.01.2028 -
Finley McAllister Crawley Town Actif 106 / 102 40% 1 27.01.2028 -
Jayden Joseph Mattersburg Actif 87 / 92 40% 1 26.01.2028 -
Lucan Louw AS Police Actif 97 / 93 40% 1 25.01.2028 -
Christoph Junuzovic Mattersburg Actif 102 / 112 40% 1 25.01.2028 -
Matvey Bardachev Zenit Actif 107 / 115 40% 1 24.01.2028 -
Celías Ingenthron Racing Club Actif 126 / 124 40% 1 24.01.2028 -
Salem Al-Azizi Al Wasl Perdu 103 / 104 65% 1 17.01.2028 Approuver
Bernardo Lima Porto Actif 101 / 120 40% 1 17.01.2028 -
Saeed Abdulrahman Al Shabab Actif 113 / 105 40% 3 15.01.2028 -
Fabián Correa Barranquilla Actif 101 / 95 40% 2 15.01.2028 -
Halam Loboa Osasuna Actif 131 / 129 40% 1 14.01.2028 -
Philipp Maybach Austria Wien Actif 116 / 116 40% 1 14.01.2028 -
Jens Mathijsen Willem II Actif 121 / 125 40% 1 14.01.2028 -
Thiago Silvero Vélez Actif 123 / 128 40% 1 13.01.2028 -
Tommaso Benvenuti Epicentr Actif 85 / 92 40% 1 13.01.2028 -
Peter Lobotka Universitario Refusé 102 / 102 66% 1 01.01.2028 Refuser
Ramón Mierez Al Nasr Refusé 121 / 121 66% 1 01.01.2028 Refuser
Matej Poplatnik Grêmio Refusé 113 / 113 66% 1 01.01.2028 Refuser
Siphesihle Sithole Inter Allies Actif 74 / 89 40% 1 30.08.2027 -
Godwin Oham Warri Wolves Actif 85 / 84 40% 1 30.08.2027 -
Sondre Granaas Stromsgodset Actif 116 / 124 40% 1 27.08.2027 -
Kaick FC Dallas Actif 103 / 116 40% 3 26.08.2027 -
Gift Udoh Ikorodu City Actif 94 / 96 40% 2 26.08.2027 -
Abubacarr Sedi Kinteh Al-Ahli Actif 121 / 137 40% 1 26.08.2027 -
Teo Rodríguez Pagano San Lorenzo Actif 121 / 128 40% 2 25.08.2027 -
Ibrahim Sabiu Bendel Insurance Actif 86 / 98 40% 2 25.08.2027 -
Juan Diego Perdomo Depor Actif 91 / 86 40% 1 25.08.2027 -
Dilan Villarreal Junior Actif 102 / 106 40% 1 24.08.2027 -
Jonny Shore New York City Actif 86 / 107 40% 1 24.08.2027 -
Jamie Wähling Hibernians Actif 98 / 86 40% 1 20.08.2027 -
Mattia Mannini Juve Stabia Actif 109 / 115 40% 1 17.08.2027 -
Simone Kosijer Triestina Actif 110 / 106 40% 1 17.08.2027 -
Victor Ehibe Ikorodu City Actif 78 / 101 40% 1 16.08.2027 -
Mbekezeli Mbokazi Chicago Fire Actif 117 / 126 40% 2 10.08.2027 -
Esteban de Lima Tacuarembo Actif 86 / 95 40% 1 10.08.2027 -
Leonardo Mendicino Bari Actif 116 / 131 40% 1 08.08.2027 -
Juan Giménez Athletic Bilbao Actif 124 / 128 40% 1 07.08.2027 -
Tiago Freitas Benfica Actif 122 / 117 40% 1 07.08.2027 -
Rafael Vargas Cortulua Actif 98 / 100 40% 1 07.08.2027 -
Jordan Graham Newport County Actif 126 / 114 40% 5 04.08.2027 -
Ben Wiles Milton Keynes Dons Actif 121 / 109 40% 2 04.08.2027 -
Mattia Puzone Siracusa Actif 96 / 109 40% 2 04.08.2027 -
Tammer Kumar West Bromwich Albion Actif 136 / 123 40% 1 04.08.2027 -
Nnamdi Obafemi Remo Stars Actif 113 / 104 40% 1 01.08.2027 -
Martim Cunha Porto Refusé 104 / 116 40% 1 29.07.2027 Plus d'infos
Yakou Meïté Damac Actif 122 / 118 40% 4 27.07.2027 -
Dale Taylor Blackpool Actif 106 / 113 40% 1 27.07.2027 -
Kyle John Port Vale Actif 106 / 103 40% 1 27.07.2027 -
Theo Archibald Leyton Orient Actif 100 / 105 40% 4 26.07.2027 -
Chem Campbell Stevenage Actif 112 / 122 40% 2 26.07.2027 -
Aaron Morley Wycombe Wanderers Actif 109 / 113 40% 1 26.07.2027 -
Joe Bauress Grimsby Town Actif 105 / 102 40% 1 25.07.2027 -
Owen Foye Swindon Town Actif 80 / 83 40% 1 25.07.2027 -
Aaron Collins Milton Keynes Dons Actif 126 / 126 40% 3 23.07.2027 -
Loreintz Rosier Al-Hazem Actif 127 / 127 40% 1 22.07.2027 -
Jonathan Bland Barnsley Actif 113 / 119 40% 2 21.07.2027 -
Renzo Reynaga Lincoln City Actif 105 / 110 40% 1 21.07.2027 -
Karoy Anderson Blackpool Actif 96 / 111 40% 1 21.07.2027 -
George Honeyman Blackpool Actif 117 / 113 40% 1 21.07.2027 -
Yaghoub Barage Persepolis Actif 100 / 111 40% 1 21.07.2027 -
Marius Courcoul Olympique de Marseille Actif 108 / 119 40% 2 17.07.2027 -
Patrick Maswanganyi Orlando Pirates Actif 121 / 114 40% 2 17.07.2027 -
Bahmed Deuff FC Metz Actif 115 / 126 40% 2 17.07.2027 -
Matthew Sorinola Oldham Athletic Actif 104 / 104 40% 1 17.07.2027 -
Gady Beyuku Modena Actif 119 / 121 40% 1 17.07.2027 -
Daniel Banjaqui Benfica Actif 114 / 130 40% 1 16.07.2027 -
Ar'jany Martha Rotherham United Actif 110 / 116 40% 3 15.07.2027 -
Khalid Al-Ghannam Al-Ettifaq Actif 132 / 124 40% 1 15.07.2027 -
Mats Egbring Heerenveen Actif 112 / 113 40% 2 12.07.2027 -
Elton Acolatse Al-Hazem Actif 116 / 118 40% 1 10.07.2027 -
Charles Vernam Grimsby Town Actif 108 / 107 40% 1 10.07.2027 -
Morlaye Sylla Damac Actif 130 / 125 40% 2 09.07.2027 -
Taylor Richards Accrington Stanley Actif 108 / 106 40% 1 09.07.2027 -
Sondre Tronstad Blackburn Rovers Actif 132 / 122 40% 1 08.07.2027 -
Jack Payne Newport County Actif 114 / 101 40% 1 07.07.2027 -
Sipho Mbule Asante Kotoko Actif 120 / 114 40% 1 07.07.2027 -
Isaac Hayden Leyton Orient Actif 125 / 114 40% 2 06.07.2027 -
Armando Dobra Chesterfield Actif 109 / 106 40% 1 05.07.2027 -
Tony Springett Lecco Actif 121 / 113 40% 1 04.07.2027 -
Reece Cole Bristol Rovers Actif 118 / 98 40% 1 03.07.2027 -
Paddy Lane Reading Actif 103 / 103 40% 1 02.07.2027 -
Archie Collins Peterborough United Actif 126 / 123 40% 1 02.07.2027 -
Dan Kemp Stevenage Actif 117 / 108 40% 1 01.07.2027 -
Louie Barry Sheffield Wednesday Actif 118 / 123 40% 1 01.07.2027 -
Junior Quitirna Wycombe Wanderers Actif 116 / 102 40% 1 30.06.2027 -
Joseph Hungbo Wigan Athletic Actif 126 / 116 40% 1 28.06.2027 -
George Hall Port Vale Actif 118 / 125 40% 1 28.06.2027 -
Alessandro Ventre Vis Pesaro Actif 84 / 96 40% 1 27.06.2027 -
Fred Onyedinma Bradford City Actif 131 / 121 40% 1 25.06.2027 -
Phoenix Patterson Stevenage Actif 112 / 109 40% 1 25.06.2027 -
Ollie O'Neill Leyton Orient Actif 116 / 110 40% 1 23.06.2027 -
Marc Bola Watford Actif 127 / 125 40% 1 23.06.2027 -
Harry Leonard Peterborough United Actif 114 / 122 40% 1 23.06.2027 -
Sergio Rodelas Granada Actif 101 / 117 40% 1 22.06.2027 -
Marvin Kaleta Rotherham United Actif 112 / 106 40% 1 22.06.2027 -
Alessio Insignito Spezia Actif 90 / 101 40% 1 21.06.2027 -
Kane Wilson Milton Keynes Dons Actif 129 / 107 40% 1 20.06.2027 -
Dramane Kamagaté USM Alger Actif 107 / 108 40% 1 20.06.2027 -
Ezra Mayers West Ham United Actif 113 / 134 40% 1 19.06.2027 -
Jenson Jones Peterborough United Actif 92 / 98 40% 1 19.06.2027 -
Georgie Gent Barnsley Actif 114 / 119 40% 1 18.06.2027 -
Malik Mothersille Stockport County Actif 117 / 120 40% 1 18.06.2027 -
Kelly Saravanan Salford City Actif 113 / 114 40% 1 18.06.2027 -
Ryan Hedges Derby County Actif 127 / 123 40% 1 15.06.2027 -
Rahid Guseynov Universitario Refusé 112 / 113 66% 1 14.06.2027 Refuser
Alex Lowry Wycombe Wanderers Actif 109 / 117 40% 1 14.06.2027 -
Otto Stange Hamburger SV Actif 128 / 128 40% 1 04.06.2027 -
Michael Noumon Heart of Lions Actif 66 / 87 40% 1 04.06.2027 -
Alan Coria Villarreal Actif 101 / 110 40% 1 03.06.2027 -
Borna Knezović Casarano Actif 102 / 103 40% 1 03.06.2027 -
Lwanda Mbanjwa Ajax Cape Town Actif 82 / 93 40% 1 03.06.2027 -
Ryan Oné Sheffield United Actif 106 / 124 40% 1 02.06.2027 -
Ashkan Alijani Sepahan Actif 87 / 89 40% 1 02.06.2027 -
Michal Suslov Talleres Refusé 115 / 115 66% 1 01.06.2027 Refuser
Williams Zwane IFK Norrkoping Refusé 109 / 111 67% 1 01.06.2027 Refuser
Egor Yuschenko Marsaxlokk Actif 87 / 83 40% 1 29.01.2027 -
Thomas Addo Liberty Professionals Actif 93 / 87 40% 1 29.01.2027 -
Mohamed Benlebna ES Setif Actif 83 / 80 40% 1 25.01.2027 -
Sheldon Dinesh Stockport County Actif 87 / 102 40% 1 25.01.2027 -
Joe Knight Stevenage Actif 112 / 99 40% 1 18.01.2027 -
Yousef Al-Tahan Al-Nassr Actif 73 / 83 40% 1 16.01.2027 -